Terminal Aerodrome Forecast
Issued by NWS Mt. Holly, NJ

Home | Current Version | Previous Version | Text Only | Print | Product List | Glossary On
Versions: 1 2 3 4 5 6 7 8 9 10 11 12 13 14 15 16 17 18 19 20
000
FTUS41 KPHI 221120
TAFRDG
TAF
KRDG 221120Z 2212/2312 VRB02KT 5SM -DZ BR BKN060
     FM222300 11005KT P6SM OVC150 WS020/19035KT
     FM230600 13006KT P6SM SHRA OVC060 WS020/20035KT
     FM231000 14009KT 4SM SHRA OVC015 WS020/20035KT=

USA.gov is the U.S. government's official web portal to all federal, state and local government web resources and services.